sensor_id;sensor_type;location;lat;lon;timestamp;P1;durP1;ratioP1;P2;durP2;ratioP2
15354;SDS011;7777;52.254;9.618;2023-07-02T00:01:48;5.43;;;2.33;;
15354;SDS011;7777;52.254;9.618;2023-07-02T00:04:15;6.40;;;2.03;;
15354;SDS011;7777;52.254;9.618;2023-07-02T00:06:47;2.77;;;2.23;;
15354;SDS011;7777;52.254;9.618;2023-07-02T00:09:13;3.17;;;1.87;;
15354;SDS011;7777;52.254;9.618;2023-07-02T00:11:41;6.70;;;2.17;;
15354;SDS011;7777;52.254;9.618;2023-07-02T00:14:09;4.80;;;2.30;;
15354;SDS011;7777;52.254;9.618;2023-07-02T00:16:37;5.50;;;2.23;;
15354;SDS011;7777;52.254;9.618;2023-07-02T00:19:06;5.67;;;2.30;;
15354;SDS011;7777;52.254;9.618;2023-07-02T00:21:31;7.47;;;2.00;;
15354;SDS011;7777;52.254;9.618;2023-07-02T00:23:58;5.03;;;2.17;;
15354;SDS011;7777;52.254;9.618;2023-07-02T00:26:25;6.17;;;2.60;;
15354;SDS011;7777;52.254;9.618;2023-07-02T00:28:53;9.33;;;2.60;;
15354;SDS011;7777;52.254;9.618;2023-07-02T00:31:20;4.77;;;2.37;;
15354;SDS011;7777;52.254;9.618;2023-07-02T00:33:46;3.30;;;2.00;;
15354;SDS011;7777;52.254;9.618;2023-07-02T00:36:13;6.13;;;2.47;;
15354;SDS011;7777;52.254;9.618;2023-07-02T00:38:42;3.93;;;2.20;;
15354;SDS011;7777;52.254;9.618;2023-07-02T00:41:14;6.00;;;2.17;;
15354;SDS011;7777;52.254;9.618;2023-07-02T00:43:40;3.90;;;2.23;;
15354;SDS011;7777;52.254;9.618;2023-07-02T00:48:49;5.20;;;2.40;;
15354;SDS011;7777;52.254;9.618;2023-07-02T00:51:34;6.87;;;2.63;;
15354;SDS011;7777;52.254;9.618;2023-07-02T00:54:00;4.80;;;2.50;;
15354;SDS011;7777;52.254;9.618;2023-07-02T00:56:26;7.03;;;2.27;;
15354;SDS011;7777;52.254;9.618;2023-07-02T00:58:55;5.27;;;2.50;;
15354;SDS011;7777;52.254;9.618;2023-07-02T01:01:24;3.87;;;2.67;;
15354;SDS011;7777;52.254;9.618;2023-07-02T01:06:25;6.90;;;2.83;;
15354;SDS011;7777;52.254;9.618;2023-07-02T01:08:57;5.93;;;2.83;;
15354;SDS011;7777;52.254;9.618;2023-07-02T01:14:04;6.40;;;2.33;;
15354;SDS011;7777;52.254;9.618;2023-07-02T01:17:02;5.40;;;2.90;;
15354;SDS011;7777;52.254;9.618;2023-07-02T01:19:47;5.43;;;2.77;;
15354;SDS011;7777;52.254;9.618;2023-07-02T01:22:18;7.30;;;2.80;;
15354;SDS011;7777;52.254;9.618;2023-07-02T01:24:50;7.80;;;2.77;;
15354;SDS011;7777;52.254;9.618;2023-07-02T01:27:16;4.00;;;2.80;;
15354;SDS011;7777;52.254;9.618;2023-07-02T01:29:43;7.30;;;2.83;;
15354;SDS011;7777;52.254;9.618;2023-07-02T01:32:12;4.63;;;2.60;;
15354;SDS011;7777;52.254;9.618;2023-07-02T01:34:39;5.10;;;2.80;;
15354;SDS011;7777;52.254;9.618;2023-07-02T01:37:05;8.03;;;2.67;;
15354;SDS011;7777;52.254;9.618;2023-07-02T01:39:31;4.70;;;3.00;;
15354;SDS011;7777;52.254;9.618;2023-07-02T01:42:16;9.23;;;3.73;;
15354;SDS011;7777;52.254;9.618;2023-07-02T01:44:46;5.60;;;3.10;;
15354;SDS011;7777;52.254;9.618;2023-07-02T01:47:13;8.93;;;3.83;;
15354;SDS011;7777;52.254;9.618;2023-07-02T01:49:40;8.47;;;3.33;;
15354;SDS011;7777;52.254;9.618;2023-07-02T01:52:06;5.17;;;3.60;;
15354;SDS011;7777;52.254;9.618;2023-07-02T01:54:32;6.00;;;3.90;;
15354;SDS011;7777;52.254;9.618;2023-07-02T01:57:00;9.67;;;3.97;;
15354;SDS011;7777;52.254;9.618;2023-07-02T01:59:26;6.97;;;3.90;;
15354;SDS011;7777;52.254;9.618;2023-07-02T02:01:52;7.30;;;4.57;;
15354;SDS011;7777;52.254;9.618;2023-07-02T02:04:18;7.03;;;3.90;;
15354;SDS011;7777;52.254;9.618;2023-07-02T02:06:44;8.03;;;4.40;;
15354;SDS011;7777;52.254;9.618;2023-07-02T02:09:10;11.30;;;4.33;;
15354;SDS011;7777;52.254;9.618;2023-07-02T02:11:40;5.27;;;4.20;;
15354;SDS011;7777;52.254;9.618;2023-07-02T02:14:09;9.60;;;4.87;;
15354;SDS011;7777;52.254;9.618;2023-07-02T02:16:34;9.97;;;5.23;;
15354;SDS011;7777;52.254;9.618;2023-07-02T02:19:00;7.47;;;4.83;;
15354;SDS011;7777;52.254;9.618;2023-07-02T02:21:27;7.07;;;4.77;;
15354;SDS011;7777;52.254;9.618;2023-07-02T02:23:53;6.10;;;5.00;;
15354;SDS011;7777;52.254;9.618;2023-07-02T02:26:18;9.33;;;5.07;;
15354;SDS011;7777;52.254;9.618;2023-07-02T02:28:46;8.33;;;4.80;;
15354;SDS011;7777;52.254;9.618;2023-07-02T02:31:13;6.77;;;5.10;;
15354;SDS011;7777;52.254;9.618;2023-07-02T02:33:40;8.97;;;4.80;;
15354;SDS011;7777;52.254;9.618;2023-07-02T02:36:06;7.07;;;5.07;;
15354;SDS011;7777;52.254;9.618;2023-07-02T02:38:31;13.80;;;5.10;;
15354;SDS011;7777;52.254;9.618;2023-07-02T02:40:58;13.00;;;5.30;;
15354;SDS011;7777;52.254;9.618;2023-07-02T02:43:25;9.77;;;4.80;;
15354;SDS011;7777;52.254;9.618;2023-07-02T02:45:51;6.97;;;5.00;;
15354;SDS011;7777;52.254;9.618;2023-07-02T02:48:16;8.13;;;5.50;;
15354;SDS011;7777;52.254;9.618;2023-07-02T02:50:42;6.47;;;4.83;;
15354;SDS011;7777;52.254;9.618;2023-07-02T02:53:08;5.67;;;4.67;;
15354;SDS011;7777;52.254;9.618;2023-07-02T02:55:35;8.10;;;4.80;;
15354;SDS011;7777;52.254;9.618;2023-07-02T02:58:01;6.70;;;4.63;;
15354;SDS011;7777;52.254;9.618;2023-07-02T03:00:28;6.30;;;4.43;;
15354;SDS011;7777;52.254;9.618;2023-07-02T03:02:53;7.20;;;4.33;;
15354;SDS011;7777;52.254;9.618;2023-07-02T03:05:20;10.80;;;4.63;;
15354;SDS011;7777;52.254;9.618;2023-07-02T03:07:47;5.43;;;4.57;;
15354;SDS011;7777;52.254;9.618;2023-07-02T03:10:14;8.67;;;5.10;;
15354;SDS011;7777;52.254;9.618;2023-07-02T03:12:39;8.90;;;4.80;;
15354;SDS011;7777;52.254;9.618;2023-07-02T03:15:05;6.83;;;4.80;;
15354;SDS011;7777;52.254;9.618;2023-07-02T03:17:32;9.20;;;4.77;;
15354;SDS011;7777;52.254;9.618;2023-07-02T03:19:57;5.93;;;4.90;;
15354;SDS011;7777;52.254;9.618;2023-07-02T03:22:23;7.20;;;5.10;;
15354;SDS011;7777;52.254;9.618;2023-07-02T03:24:49;5.57;;;4.90;;
15354;SDS011;7777;52.254;9.618;2023-07-02T03:27:15;10.10;;;5.80;;
15354;SDS011;7777;52.254;9.618;2023-07-02T03:29:40;6.47;;;5.27;;
15354;SDS011;7777;52.254;9.618;2023-07-02T03:32:06;13.13;;;6.20;;
15354;SDS011;7777;52.254;9.618;2023-07-02T03:34:32;11.83;;;6.60;;
15354;SDS011;7777;52.254;9.618;2023-07-02T03:36:58;8.43;;;6.13;;
15354;SDS011;7777;52.254;9.618;2023-07-02T03:39:24;6.87;;;5.50;;
15354;SDS011;7777;52.254;9.618;2023-07-02T03:41:50;7.20;;;5.73;;
15354;SDS011;7777;52.254;9.618;2023-07-02T03:44:15;6.93;;;5.10;;
15354;SDS011;7777;52.254;9.618;2023-07-02T03:46:41;11.50;;;5.53;;
15354;SDS011;7777;52.254;9.618;2023-07-02T03:49:08;13.57;;;5.73;;
15354;SDS011;7777;52.254;9.618;2023-07-02T03:51:33;8.27;;;6.00;;
15354;SDS011;7777;52.254;9.618;2023-07-02T03:53:59;7.33;;;6.03;;
15354;SDS011;7777;52.254;9.618;2023-07-02T03:56:25;8.13;;;7.33;;
15354;SDS011;7777;52.254;9.618;2023-07-02T03:58:51;8.97;;;6.70;;
15354;SDS011;7777;52.254;9.618;2023-07-02T04:01:17;7.87;;;7.03;;
15354;SDS011;7777;52.254;9.618;2023-07-02T04:03:50;10.60;;;7.27;;
15354;SDS011;7777;52.254;9.618;2023-07-02T04:06:17;12.67;;;7.13;;
15354;SDS011;7777;52.254;9.618;2023-07-02T04:08:44;12.23;;;7.57;;
15354;SDS011;7777;52.254;9.618;2023-07-02T04:11:10;9.70;;;7.80;;
15354;SDS011;7777;52.254;9.618;2023-07-02T04:13:37;8.57;;;7.73;;
15354;SDS011;7777;52.254;9.618;2023-07-02T04:16:04;8.80;;;8.00;;
15354;SDS011;7777;52.254;9.618;2023-07-02T04:18:30;9.50;;;8.50;;
15354;SDS011;7777;52.254;9.618;2023-07-02T04:20:57;15.70;;;8.93;;
15354;SDS011;7777;52.254;9.618;2023-07-02T04:23:23;11.17;;;8.17;;
15354;SDS011;7777;52.254;9.618;2023-07-02T04:25:50;16.27;;;6.40;;
15354;SDS011;7777;52.254;9.618;2023-07-02T04:28:16;16.47;;;8.03;;
15354;SDS011;7777;52.254;9.618;2023-07-02T04:30:42;15.00;;;6.77;;
15354;SDS011;7777;52.254;9.618;2023-07-02T04:33:08;18.57;;;7.23;;
15354;SDS011;7777;52.254;9.618;2023-07-02T04:35:34;12.50;;;6.53;;
15354;SDS011;7777;52.254;9.618;2023-07-02T04:38:00;15.33;;;6.37;;
15354;SDS011;7777;52.254;9.618;2023-07-02T04:40:26;13.20;;;6.17;;
15354;SDS011;7777;52.254;9.618;2023-07-02T04:42:52;14.83;;;6.93;;
15354;SDS011;7777;52.254;9.618;2023-07-02T04:45:23;11.03;;;6.07;;
15354;SDS011;7777;52.254;9.618;2023-07-02T04:47:50;14.00;;;6.43;;
15354;SDS011;7777;52.254;9.618;2023-07-02T04:50:16;13.37;;;6.73;;
15354;SDS011;7777;52.254;9.618;2023-07-02T04:52:43;14.43;;;5.87;;
15354;SDS011;7777;52.254;9.618;2023-07-02T04:55:09;10.47;;;5.87;;
15354;SDS011;7777;52.254;9.618;2023-07-02T04:57:35;13.40;;;6.43;;
15354;SDS011;7777;52.254;9.618;2023-07-02T05:00:01;12.50;;;6.60;;
15354;SDS011;7777;52.254;9.618;2023-07-02T05:02:29;13.13;;;6.13;;
15354;SDS011;7777;52.254;9.618;2023-07-02T05:04:54;16.30;;;6.63;;
15354;SDS011;7777;52.254;9.618;2023-07-02T05:07:20;15.33;;;6.70;;
15354;SDS011;7777;52.254;9.618;2023-07-02T05:09:46;12.57;;;6.63;;
15354;SDS011;7777;52.254;9.618;2023-07-02T05:12:13;11.97;;;5.67;;
15354;SDS011;7777;52.254;9.618;2023-07-02T05:14:39;14.03;;;6.03;;
15354;SDS011;7777;52.254;9.618;2023-07-02T05:17:05;11.33;;;6.07;;
15354;SDS011;7777;52.254;9.618;2023-07-02T05:19:30;12.03;;;6.07;;
15354;SDS011;7777;52.254;9.618;2023-07-02T05:21:56;12.47;;;5.77;;
15354;SDS011;7777;52.254;9.618;2023-07-02T05:24:22;15.10;;;6.47;;
15354;SDS011;7777;52.254;9.618;2023-07-02T05:26:48;12.93;;;6.23;;
15354;SDS011;7777;52.254;9.618;2023-07-02T05:29:15;15.63;;;6.00;;
15354;SDS011;7777;52.254;9.618;2023-07-02T05:31:41;11.83;;;6.20;;
15354;SDS011;7777;52.254;9.618;2023-07-02T05:34:07;12.03;;;6.53;;
15354;SDS011;7777;52.254;9.618;2023-07-02T05:36:33;12.47;;;6.03;;
15354;SDS011;7777;52.254;9.618;2023-07-02T05:38:59;10.93;;;5.93;;
15354;SDS011;7777;52.254;9.618;2023-07-02T05:41:25;13.73;;;6.63;;
15354;SDS011;7777;52.254;9.618;2023-07-02T05:43:55;14.03;;;6.57;;
15354;SDS011;7777;52.254;9.618;2023-07-02T05:46:24;18.57;;;6.90;;
15354;SDS011;7777;52.254;9.618;2023-07-02T05:48:50;13.27;;;6.60;;
15354;SDS011;7777;52.254;9.618;2023-07-02T05:51:21;13.37;;;6.07;;
15354;SDS011;7777;52.254;9.618;2023-07-02T05:53:50;16.13;;;5.97;;
15354;SDS011;7777;52.254;9.618;2023-07-02T05:56:17;15.37;;;5.67;;
15354;SDS011;7777;52.254;9.618;2023-07-02T05:58:44;17.07;;;6.23;;
15354;SDS011;7777;52.254;9.618;2023-07-02T06:01:11;16.70;;;6.13;;
15354;SDS011;7777;52.254;9.618;2023-07-02T06:03:37;14.83;;;6.97;;
15354;SDS011;7777;52.254;9.618;2023-07-02T06:06:03;16.27;;;6.43;;
15354;SDS011;7777;52.254;9.618;2023-07-02T06:08:28;13.37;;;6.50;;
15354;SDS011;7777;52.254;9.618;2023-07-02T06:10:54;10.70;;;6.37;;
15354;SDS011;7777;52.254;9.618;2023-07-02T06:13:20;15.03;;;6.83;;
15354;SDS011;7777;52.254;9.618;2023-07-02T06:15:45;15.53;;;6.60;;
15354;SDS011;7777;52.254;9.618;2023-07-02T06:18:12;15.20;;;6.60;;
15354;SDS011;7777;52.254;9.618;2023-07-02T06:20:38;16.80;;;5.77;;
15354;SDS011;7777;52.254;9.618;2023-07-02T06:23:04;13.73;;;6.53;;
15354;SDS011;7777;52.254;9.618;2023-07-02T06:25:30;14.20;;;6.30;;
15354;SDS011;7777;52.254;9.618;2023-07-02T06:27:55;17.47;;;6.47;;
15354;SDS011;7777;52.254;9.618;2023-07-02T06:30:23;15.27;;;7.27;;
15354;SDS011;7777;52.254;9.618;2023-07-02T06:32:49;13.43;;;6.40;;
15354;SDS011;7777;52.254;9.618;2023-07-02T06:35:15;12.90;;;6.03;;
15354;SDS011;7777;52.254;9.618;2023-07-02T06:37:41;18.87;;;6.47;;
15354;SDS011;7777;52.254;9.618;2023-07-02T06:40:07;13.23;;;6.57;;
15354;SDS011;7777;52.254;9.618;2023-07-02T06:42:33;13.03;;;6.10;;
15354;SDS011;7777;52.254;9.618;2023-07-02T06:45:01;17.23;;;6.37;;
15354;SDS011;7777;52.254;9.618;2023-07-02T06:47:27;12.33;;;6.17;;
15354;SDS011;7777;52.254;9.618;2023-07-02T06:49:53;14.50;;;6.70;;
15354;SDS011;7777;52.254;9.618;2023-07-02T06:52:19;20.00;;;6.80;;
15354;SDS011;7777;52.254;9.618;2023-07-02T06:54:45;11.53;;;6.37;;
15354;SDS011;7777;52.254;9.618;2023-07-02T06:57:12;14.40;;;6.70;;
15354;SDS011;7777;52.254;9.618;2023-07-02T06:59:38;20.97;;;7.10;;
15354;SDS011;7777;52.254;9.618;2023-07-02T07:02:04;20.80;;;7.30;;
15354;SDS011;7777;52.254;9.618;2023-07-02T07:04:30;15.33;;;7.23;;
15354;SDS011;7777;52.254;9.618;2023-07-02T07:06:55;18.40;;;6.80;;
15354;SDS011;7777;52.254;9.618;2023-07-02T07:09:21;15.67;;;7.03;;
15354;SDS011;7777;52.254;9.618;2023-07-02T07:11:47;12.20;;;6.27;;
15354;SDS011;7777;52.254;9.618;2023-07-02T07:14:13;14.23;;;6.87;;
15354;SDS011;7777;52.254;9.618;2023-07-02T07:16:39;23.43;;;7.73;;
15354;SDS011;7777;52.254;9.618;2023-07-02T07:19:05;16.37;;;7.07;;
15354;SDS011;7777;52.254;9.618;2023-07-02T07:21:32;19.37;;;7.03;;
15354;SDS011;7777;52.254;9.618;2023-07-02T07:23:59;15.50;;;7.47;;
15354;SDS011;7777;52.254;9.618;2023-07-02T07:26:25;21.67;;;6.77;;
15354;SDS011;7777;52.254;9.618;2023-07-02T07:28:51;16.70;;;6.97;;
15354;SDS011;7777;52.254;9.618;2023-07-02T07:31:19;12.80;;;6.40;;
15354;SDS011;7777;52.254;9.618;2023-07-02T07:33:45;18.87;;;7.20;;
15354;SDS011;7777;52.254;9.618;2023-07-02T07:36:10;16.57;;;7.10;;
15354;SDS011;7777;52.254;9.618;2023-07-02T07:38:36;17.13;;;7.47;;
15354;SDS011;7777;52.254;9.618;2023-07-02T07:41:02;17.87;;;7.23;;
15354;SDS011;7777;52.254;9.618;2023-07-02T07:43:28;20.60;;;7.93;;
15354;SDS011;7777;52.254;9.618;2023-07-02T07:45:53;16.93;;;7.90;;
15354;SDS011;7777;52.254;9.618;2023-07-02T07:48:19;16.90;;;7.03;;
15354;SDS011;7777;52.254;9.618;2023-07-02T07:50:46;14.87;;;6.67;;
15354;SDS011;7777;52.254;9.618;2023-07-02T07:53:12;20.30;;;7.80;;
15354;SDS011;7777;52.254;9.618;2023-07-02T07:55:38;21.57;;;7.50;;
15354;SDS011;7777;52.254;9.618;2023-07-02T07:58:03;22.60;;;8.03;;
15354;SDS011;7777;52.254;9.618;2023-07-02T08:00:29;17.97;;;7.30;;
15354;SDS011;7777;52.254;9.618;2023-07-02T08:02:55;19.87;;;7.87;;
15354;SDS011;7777;52.254;9.618;2023-07-02T08:05:21;22.00;;;7.97;;
15354;SDS011;7777;52.254;9.618;2023-07-02T08:07:48;20.47;;;7.80;;
15354;SDS011;7777;52.254;9.618;2023-07-02T08:10:14;14.43;;;7.30;;
15354;SDS011;7777;52.254;9.618;2023-07-02T08:12:39;21.00;;;8.03;;
15354;SDS011;7777;52.254;9.618;2023-07-02T08:15:05;14.50;;;6.80;;
15354;SDS011;7777;52.254;9.618;2023-07-02T08:17:31;15.60;;;7.73;;
15354;SDS011;7777;52.254;9.618;2023-07-02T08:19:57;18.23;;;7.97;;
15354;SDS011;7777;52.254;9.618;2023-07-02T08:22:23;18.77;;;7.97;;
15354;SDS011;7777;52.254;9.618;2023-07-02T08:24:49;20.27;;;7.53;;
15354;SDS011;7777;52.254;9.618;2023-07-02T08:27:15;16.77;;;7.50;;
15354;SDS011;7777;52.254;9.618;2023-07-02T08:29:44;14.30;;;6.60;;
15354;SDS011;7777;52.254;9.618;2023-07-02T08:32:14;24.40;;;8.83;;
15354;SDS011;7777;52.254;9.618;2023-07-02T08:34:40;16.00;;;7.30;;
15354;SDS011;7777;52.254;9.618;2023-07-02T08:37:06;17.17;;;6.70;;
15354;SDS011;7777;52.254;9.618;2023-07-02T08:39:32;13.53;;;7.20;;
15354;SDS011;7777;52.254;9.618;2023-07-02T08:41:58;16.00;;;7.90;;
15354;SDS011;7777;52.254;9.618;2023-07-02T08:44:23;18.17;;;7.60;;
15354;SDS011;7777;52.254;9.618;2023-07-02T08:46:51;18.57;;;7.87;;
15354;SDS011;7777;52.254;9.618;2023-07-02T08:49:20;17.60;;;7.20;;
15354;SDS011;7777;52.254;9.618;2023-07-02T08:51:46;18.73;;;7.47;;
15354;SDS011;7777;52.254;9.618;2023-07-02T08:54:12;19.93;;;7.60;;
15354;SDS011;7777;52.254;9.618;2023-07-02T08:56:39;15.73;;;7.50;;
15354;SDS011;7777;52.254;9.618;2023-07-02T08:59:08;19.10;;;8.13;;
15354;SDS011;7777;52.254;9.618;2023-07-02T09:04:17;15.13;;;6.53;;
15354;SDS011;7777;52.254;9.618;2023-07-02T09:06:49;17.33;;;7.53;;
15354;SDS011;7777;52.254;9.618;2023-07-02T09:09:27;17.63;;;7.17;;
15354;SDS011;7777;52.254;9.618;2023-07-02T09:11:54;17.80;;;7.73;;
15354;SDS011;7777;52.254;9.618;2023-07-02T09:14:29;21.07;;;7.40;;
15354;SDS011;7777;52.254;9.618;2023-07-02T09:17:02;14.03;;;7.13;;
15354;SDS011;7777;52.254;9.618;2023-07-02T09:19:36;18.30;;;8.23;;
15354;SDS011;7777;52.254;9.618;2023-07-02T09:22:15;15.83;;;7.20;;
15354;SDS011;7777;52.254;9.618;2023-07-02T09:24:41;18.53;;;7.57;;
15354;SDS011;7777;52.254;9.618;2023-07-02T09:27:19;15.87;;;8.00;;
15354;SDS011;7777;52.254;9.618;2023-07-02T09:29:49;24.30;;;7.67;;
15354;SDS011;7777;52.254;9.618;2023-07-02T09:32:26;12.40;;;6.93;;
15354;SDS011;7777;52.254;9.618;2023-07-02T09:34:53;13.67;;;7.13;;
15354;SDS011;7777;52.254;9.618;2023-07-02T09:37:20;14.90;;;6.90;;
15354;SDS011;7777;52.254;9.618;2023-07-02T09:39:48;16.77;;;7.20;;
15354;SDS011;7777;52.254;9.618;2023-07-02T09:42:17;16.10;;;6.70;;
15354;SDS011;7777;52.254;9.618;2023-07-02T09:44:45;14.40;;;6.63;;
15354;SDS011;7777;52.254;9.618;2023-07-02T09:47:12;13.43;;;6.90;;
15354;SDS011;7777;52.254;9.618;2023-07-02T09:49:49;21.27;;;6.93;;
15354;SDS011;7777;52.254;9.618;2023-07-02T09:52:35;14.90;;;7.07;;
15354;SDS011;7777;52.254;9.618;2023-07-02T09:55:01;16.60;;;7.27;;
15354;SDS011;7777;52.254;9.618;2023-07-02T09:57:29;15.73;;;7.67;;
15354;SDS011;7777;52.254;9.618;2023-07-02T09:59:56;13.43;;;6.30;;
15354;SDS011;7777;52.254;9.618;2023-07-02T10:02:24;12.27;;;5.93;;
15354;SDS011;7777;52.254;9.618;2023-07-02T10:04:50;18.03;;;6.23;;
15354;SDS011;7777;52.254;9.618;2023-07-02T10:07:29;12.43;;;6.40;;
15354;SDS011;7777;52.254;9.618;2023-07-02T10:09:59;13.13;;;6.63;;
15354;SDS011;7777;52.254;9.618;2023-07-02T10:12:26;14.07;;;6.03;;
15354;SDS011;7777;52.254;9.618;2023-07-02T10:14:54;12.40;;;6.20;;
15354;SDS011;7777;52.254;9.618;2023-07-02T10:17:24;13.13;;;6.03;;
15354;SDS011;7777;52.254;9.618;2023-07-02T10:19:54;11.90;;;6.40;;
15354;SDS011;7777;52.254;9.618;2023-07-02T10:22:22;15.60;;;5.83;;
15354;SDS011;7777;52.254;9.618;2023-07-02T10:24:55;12.30;;;6.33;;
15354;SDS011;7777;52.254;9.618;2023-07-02T10:27:38;11.73;;;6.23;;
15354;SDS011;7777;52.254;9.618;2023-07-02T10:30:05;13.73;;;7.37;;
15354;SDS011;7777;52.254;9.618;2023-07-02T10:32:36;16.27;;;7.33;;
15354;SDS011;7777;52.254;9.618;2023-07-02T10:35:16;11.30;;;5.77;;
15354;SDS011;7777;52.254;9.618;2023-07-02T10:37:53;11.63;;;6.00;;
15354;SDS011;7777;52.254;9.618;2023-07-02T10:40:25;12.83;;;6.23;;
15354;SDS011;7777;52.254;9.618;2023-07-02T10:43:01;13.30;;;6.33;;
15354;SDS011;7777;52.254;9.618;2023-07-02T10:45:44;13.43;;;6.53;;
15354;SDS011;7777;52.254;9.618;2023-07-02T10:48:12;12.90;;;6.20;;
15354;SDS011;7777;52.254;9.618;2023-07-02T10:50:50;12.60;;;5.43;;
15354;SDS011;7777;52.254;9.618;2023-07-02T10:53:19;15.17;;;6.00;;
15354;SDS011;7777;52.254;9.618;2023-07-02T10:55:46;13.50;;;6.03;;
15354;SDS011;7777;52.254;9.618;2023-07-02T10:58:22;15.07;;;6.60;;
15354;SDS011;7777;52.254;9.618;2023-07-02T11:00:50;15.50;;;6.07;;
15354;SDS011;7777;52.254;9.618;2023-07-02T11:03:20;13.80;;;5.77;;
15354;SDS011;7777;52.254;9.618;2023-07-02T11:05:47;14.90;;;6.90;;
15354;SDS011;7777;52.254;9.618;2023-07-02T11:08:14;12.93;;;5.53;;
15354;SDS011;7777;52.254;9.618;2023-07-02T11:10:40;14.23;;;6.20;;
15354;SDS011;7777;52.254;9.618;2023-07-02T11:13:24;16.40;;;7.00;;
15354;SDS011;7777;52.254;9.618;2023-07-02T11:15:50;12.10;;;5.43;;
15354;SDS011;7777;52.254;9.618;2023-07-02T11:18:17;15.63;;;5.97;;
15354;SDS011;7777;52.254;9.618;2023-07-02T11:20:47;13.17;;;5.90;;
15354;SDS011;7777;52.254;9.618;2023-07-02T11:23:19;15.20;;;6.93;;
15354;SDS011;7777;52.254;9.618;2023-07-02T11:28:28;15.30;;;5.57;;
15354;SDS011;7777;52.254;9.618;2023-07-02T11:30:56;13.70;;;5.70;;
15354;SDS011;7777;52.254;9.618;2023-07-02T11:33:35;18.20;;;6.03;;
15354;SDS011;7777;52.254;9.618;2023-07-02T11:38:46;15.17;;;5.60;;
15354;SDS011;7777;52.254;9.618;2023-07-02T11:41:15;12.70;;;6.13;;
15354;SDS011;7777;52.254;9.618;2023-07-02T11:43:41;15.10;;;6.00;;
15354;SDS011;7777;52.254;9.618;2023-07-02T11:46:07;12.27;;;5.77;;
15354;SDS011;7777;52.254;9.618;2023-07-02T11:48:32;12.83;;;5.67;;
15354;SDS011;7777;52.254;9.618;2023-07-02T11:50:58;13.53;;;5.50;;
15354;SDS011;7777;52.254;9.618;2023-07-02T11:53:24;10.90;;;5.67;;
15354;SDS011;7777;52.254;9.618;2023-07-02T11:55:50;15.50;;;5.40;;
15354;SDS011;7777;52.254;9.618;2023-07-02T11:58:16;9.70;;;5.83;;
15354;SDS011;7777;52.254;9.618;2023-07-02T12:00:42;10.77;;;6.13;;
15354;SDS011;7777;52.254;9.618;2023-07-02T12:03:10;14.37;;;6.17;;
15354;SDS011;7777;52.254;9.618;2023-07-02T12:05:37;14.00;;;5.53;;
15354;SDS011;7777;52.254;9.618;2023-07-02T12:08:03;12.70;;;5.93;;
15354;SDS011;7777;52.254;9.618;2023-07-02T12:10:29;9.67;;;4.90;;
15354;SDS011;7777;52.254;9.618;2023-07-02T12:12:54;16.00;;;5.87;;
15354;SDS011;7777;52.254;9.618;2023-07-02T12:15:24;10.80;;;6.07;;
15354;SDS011;7777;52.254;9.618;2023-07-02T12:17:50;11.30;;;5.50;;
15354;SDS011;7777;52.254;9.618;2023-07-02T12:20:16;12.60;;;5.67;;
15354;SDS011;7777;52.254;9.618;2023-07-02T12:22:41;15.07;;;5.83;;
15354;SDS011;7777;52.254;9.618;2023-07-02T12:25:09;9.43;;;5.30;;
15354;SDS011;7777;52.254;9.618;2023-07-02T12:27:35;12.10;;;5.87;;
15354;SDS011;7777;52.254;9.618;2023-07-02T12:30:00;12.63;;;5.80;;
15354;SDS011;7777;52.254;9.618;2023-07-02T12:32:26;12.20;;;5.73;;
15354;SDS011;7777;52.254;9.618;2023-07-02T12:34:52;15.33;;;5.33;;
15354;SDS011;7777;52.254;9.618;2023-07-02T12:37:18;15.47;;;6.20;;
15354;SDS011;7777;52.254;9.618;2023-07-02T12:39:45;11.43;;;5.60;;
15354;SDS011;7777;52.254;9.618;2023-07-02T12:42:15;8.97;;;5.47;;
15354;SDS011;7777;52.254;9.618;2023-07-02T12:44:40;9.97;;;5.70;;
15354;SDS011;7777;52.254;9.618;2023-07-02T12:47:06;11.23;;;4.93;;
15354;SDS011;7777;52.254;9.618;2023-07-02T12:49:32;13.13;;;5.17;;
15354;SDS011;7777;52.254;9.618;2023-07-02T12:51:57;15.17;;;5.80;;
15354;SDS011;7777;52.254;9.618;2023-07-02T12:54:23;10.23;;;5.13;;
15354;SDS011;7777;52.254;9.618;2023-07-02T12:56:50;10.63;;;5.17;;
15354;SDS011;7777;52.254;9.618;2023-07-02T12:59:16;14.00;;;5.83;;
15354;SDS011;7777;52.254;9.618;2023-07-02T13:01:45;13.03;;;5.87;;
15354;SDS011;7777;52.254;9.618;2023-07-02T13:04:10;21.10;;;6.03;;
15354;SDS011;7777;52.254;9.618;2023-07-02T13:06:36;11.63;;;5.10;;
15354;SDS011;7777;52.254;9.618;2023-07-02T13:09:05;19.87;;;5.57;;
15354;SDS011;7777;52.254;9.618;2023-07-02T13:11:32;10.60;;;5.90;;
15354;SDS011;7777;52.254;9.618;2023-07-02T13:13:58;11.07;;;5.50;;
15354;SDS011;7777;52.254;9.618;2023-07-02T13:16:24;9.27;;;4.77;;
15354;SDS011;7777;52.254;9.618;2023-07-02T13:18:49;12.87;;;5.90;;
15354;SDS011;7777;52.254;9.618;2023-07-02T13:21:15;24.20;;;6.77;;
15354;SDS011;7777;52.254;9.618;2023-07-02T13:23:41;15.50;;;6.30;;
15354;SDS011;7777;52.254;9.618;2023-07-02T13:26:07;13.67;;;6.13;;
15354;SDS011;7777;52.254;9.618;2023-07-02T13:28:33;10.40;;;5.37;;
15354;SDS011;7777;52.254;9.618;2023-07-02T13:30:59;15.93;;;5.33;;
15354;SDS011;7777;52.254;9.618;2023-07-02T13:33:25;10.50;;;4.80;;
15354;SDS011;7777;52.254;9.618;2023-07-02T13:35:53;11.93;;;4.80;;
15354;SDS011;7777;52.254;9.618;2023-07-02T13:38:23;10.37;;;4.90;;
15354;SDS011;7777;52.254;9.618;2023-07-02T13:40:49;11.60;;;5.17;;
15354;SDS011;7777;52.254;9.618;2023-07-02T13:43:15;9.33;;;5.33;;
15354;SDS011;7777;52.254;9.618;2023-07-02T13:45:41;10.73;;;4.93;;
15354;SDS011;7777;52.254;9.618;2023-07-02T13:48:07;9.97;;;4.70;;
15354;SDS011;7777;52.254;9.618;2023-07-02T13:50:33;8.60;;;4.90;;
15354;SDS011;7777;52.254;9.618;2023-07-02T13:52:58;10.97;;;5.30;;
15354;SDS011;7777;52.254;9.618;2023-07-02T13:55:24;8.67;;;4.67;;
15354;SDS011;7777;52.254;9.618;2023-07-02T13:57:53;11.40;;;5.37;;
15354;SDS011;7777;52.254;9.618;2023-07-02T14:00:20;14.80;;;4.87;;
15354;SDS011;7777;52.254;9.618;2023-07-02T14:02:46;14.60;;;5.30;;
15354;SDS011;7777;52.254;9.618;2023-07-02T14:05:12;14.60;;;5.63;;
15354;SDS011;7777;52.254;9.618;2023-07-02T14:07:38;10.97;;;5.00;;
15354;SDS011;7777;52.254;9.618;2023-07-02T14:10:16;15.80;;;5.27;;
15354;SDS011;7777;52.254;9.618;2023-07-02T14:12:42;12.47;;;5.30;;
15354;SDS011;7777;52.254;9.618;2023-07-02T14:15:34;15.30;;;5.43;;
15354;SDS011;7777;52.254;9.618;2023-07-02T14:18:00;10.83;;;5.30;;
15354;SDS011;7777;52.254;9.618;2023-07-02T14:20:28;10.77;;;4.13;;
15354;SDS011;7777;52.254;9.618;2023-07-02T14:22:54;7.93;;;4.47;;
15354;SDS011;7777;52.254;9.618;2023-07-02T14:34:10;13.50;;;4.40;;
15354;SDS011;7777;52.254;9.618;2023-07-02T14:36:36;17.50;;;4.77;;
15354;SDS011;7777;52.254;9.618;2023-07-02T14:39:07;9.90;;;4.80;;
15354;SDS011;7777;52.254;9.618;2023-07-02T14:41:33;9.87;;;4.13;;
15354;SDS011;7777;52.254;9.618;2023-07-02T14:44:11;14.20;;;3.90;;
15354;SDS011;7777;52.254;9.618;2023-07-02T14:49:30;9.57;;;4.80;;
15354;SDS011;7777;52.254;9.618;2023-07-02T14:52:10;9.53;;;4.50;;
15354;SDS011;7777;52.254;9.618;2023-07-02T14:54:37;10.53;;;4.63;;
15354;SDS011;7777;52.254;9.618;2023-07-02T14:57:03;11.20;;;4.53;;
15354;SDS011;7777;52.254;9.618;2023-07-02T14:59:29;9.43;;;4.27;;
15354;SDS011;7777;52.254;9.618;2023-07-02T15:01:55;10.27;;;4.87;;
15354;SDS011;7777;52.254;9.618;2023-07-02T15:04:21;7.30;;;4.37;;
15354;SDS011;7777;52.254;9.618;2023-07-02T15:06:47;8.53;;;4.60;;
15354;SDS011;7777;52.254;9.618;2023-07-02T15:09:12;8.93;;;4.50;;
15354;SDS011;7777;52.254;9.618;2023-07-02T15:11:38;13.13;;;4.83;;
15354;SDS011;7777;52.254;9.618;2023-07-02T15:14:04;14.43;;;4.97;;
15354;SDS011;7777;52.254;9.618;2023-07-02T15:16:30;10.37;;;4.13;;
15354;SDS011;7777;52.254;9.618;2023-07-02T15:18:56;9.37;;;4.23;;
15354;SDS011;7777;52.254;9.618;2023-07-02T15:21:24;9.50;;;4.40;;
15354;SDS011;7777;52.254;9.618;2023-07-02T15:23:50;10.13;;;3.90;;